Time,TemperatureF,DewpointF,PressureIn,WindDirection,WindDirectionDegrees,WindSpeedMPH,WindSpeedGustMPH,Humidity,HourlyPrecipIn,Conditions,Clouds,dailyrainin,SoftwareType,DateUTC
2013-08-04 00:02:00,68.2,62.5,29.23,NE,39,0.0,0.0,82,0.00,RA,,0.00,WeatherDisplay:10.37,2013-08-04 04:02:00,
2013-08-04 00:03:00,68.2,62.1,29.23,NE,39,0.0,0.0,81,0.00,RA,,0.00,WeatherDisplay:10.37,2013-08-04 04:03:00,
2013-08-04 00:05:00,68.0,61.9,29.23,NE,39,0.0,0.0,81,0.00,RA,,0.00,WeatherDisplay:10.37,2013-08-04 04:05:00,
2013-08-04 00:10:00,68.0,61.9,29.23,NE,39,0.0,0.0,81,0.00,SCT,,0.00,WeatherDisplay:10.37,2013-08-04 04:10:00,
2013-08-04 00:15:00,68.0,61.9,29.23,NE,39,0.0,0.0,81,0.00,SCT,,0.00,WeatherDisplay:10.37,2013-08-04 04:15:00,
2013-08-04 00:20:00,67.8,61.8,29.23,NE,39,0.0,0.0,81,0.00,SCT,,0.00,WeatherDisplay:10.37,2013-08-04 04:20:00,
2013-08-04 00:24:00,67.8,61.8,29.23,NE,39,0.0,0.0,81,0.00,SCT,,0.00,WeatherDisplay:10.37,2013-08-04 04:24:00,
2013-08-04 00:29:00,67.6,61.6,29.23,NE,39,0.0,0.0,81,0.00,SCT,,0.00,WeatherDisplay:10.37,2013-08-04 04:29:00,
2013-08-04 00:35:00,67.5,61.5,29.23,NE,39,0.0,0.0,81,0.00,SCT,,0.00,WeatherDisplay:10.37,2013-08-04 04:35:00,
2013-08-04 00:39:00,67.5,61.4,29.23,NE,39,0.0,0.0,81,0.00,SCT,,0.00,WeatherDisplay:10.37,2013-08-04 04:39:00,
2013-08-04 00:45:00,67.5,61.4,29.23,NE,39,0.0,0.0,81,0.00,SCT,,0.00,WeatherDisplay:10.37,2013-08-04 04:45:00,
2013-08-04 00:49:00,67.3,61.2,29.23,NE,39,0.0,0.0,81,0.00,SCT,,0.00,WeatherDisplay:10.37,2013-08-04 04:49:00,
2013-08-04 00:54:00,67.3,61.2,29.23,NE,39,0.0,0.0,81,0.00,SCT,,0.00,WeatherDisplay:10.37,2013-08-04 04:54:00,
2013-08-04 00:59:00,67.3,61.2,29.23,NE,39,0.0,0.0,81,0.00,SCT,,0.00,WeatherDisplay:10.37,2013-08-04 04:59:00,
2013-08-04 01:04:00,67.1,61.1,29.23,NE,39,0.0,0.0,81,0.00,CLR,,0.00,WeatherDisplay:10.37,2013-08-04 05:04:00,
2013-08-04 01:09:00,67.1,61.1,29.23,NE,39,0.0,0.0,81,0.00,CLR,,0.00,WeatherDisplay:10.37,2013-08-04 05:09:00,
2013-08-04 01:15:00,67.1,61.1,29.23,NE,39,0.0,0.0,81,0.00,CLR,,0.00,WeatherDisplay:10.37,2013-08-04 05:15:00,
2013-08-04 01:20:00,66.9,60.9,29.23,NE,39,0.0,0.0,81,0.00,CLR,,0.00,WeatherDisplay:10.37,2013-08-04 05:20:00,
2013-08-04 01:25:00,66.9,60.9,29.23,NE,39,0.0,0.0,81,0.00,CLR,,0.00,WeatherDisplay:10.37,2013-08-04 05:25:00,
2013-08-04 01:29:00,66.9,60.8,29.23,NE,39,0.0,0.0,81,0.00,CLR,,0.00,WeatherDisplay:10.37,2013-08-04 05:29:00,
2013-08-04 01:35:00,66.7,60.7,29.23,NE,39,0.0,0.0,81,0.00,CLR,,0.00,WeatherDisplay:10.37,2013-08-04 05:35:00,
2013-08-04 01:40:00,66.7,60.7,29.23,NE,39,0.0,0.0,81,0.00,CLR,,0.00,WeatherDisplay:10.37,2013-08-04 05:40:00,
2013-08-04 01:45:00,66.7,60.7,29.23,NE,40,0.0,0.0,81,0.00,CLR,,0.00,WeatherDisplay:10.37,2013-08-04 05:45:00,
2013-08-04 01:50:00,66.6,60.5,29.23,NE,39,0.0,0.0,81,0.00,CLR,,0.00,WeatherDisplay:10.37,2013-08-04 05:50:00,
2013-08-04 01:55:00,66.6,60.5,29.23,NE,39,0.0,0.0,81,0.00,CLR,,0.00,WeatherDisplay:10.37,2013-08-04 05:55:00,
2013-08-04 01:59:00,66.6,60.5,29.23,NE,39,0.0,0.0,81,0.00,CLR,,0.00,WeatherDisplay:10.37,2013-08-04 05:59:00,
2013-08-04 02:05:00,66.6,60.5,29.23,NE,39,0.0,0.0,81,0.00,CLR,,0.00,WeatherDisplay:10.37,2013-08-04 06:05:00,
2013-08-04 02:10:00,66.6,60.5,29.23,NE,39,0.0,0.0,81,0.00,CLR,,0.00,WeatherDisplay:10.37,2013-08-04 06:10:00,
2013-08-04 02:14:00,66.4,60.4,29.23,NE,39,0.0,0.0,81,0.00,CLR,,0.00,WeatherDisplay:10.37,2013-08-04 06:14:00,
2013-08-04 02:20:00,66.4,60.4,29.23,NE,39,0.0,0.0,81,0.00,CLR,,0.00,WeatherDisplay:10.37,2013-08-04 06:20:00,
2013-08-04 02:25:00,66.4,60.4,29.23,NE,39,0.0,0.0,81,0.00,CLR,,0.00,WeatherDisplay:10.37,2013-08-04 06:25:00,
2013-08-04 02:30:00,66.4,60.4,29.23,NE,40,0.0,0.0,81,0.00,CLR,,0.00,WeatherDisplay:10.37,2013-08-04 06:30:00,
2013-08-04 02:35:00,66.4,60.4,29.23,NE,39,0.0,0.0,81,0.00,CLR,,0.00,WeatherDisplay:10.37,2013-08-04 06:35:00,
2013-08-04 02:40:00,66.4,60.4,29.23,NE,40,0.0,0.0,81,0.00,CLR,,0.00,WeatherDisplay:10.37,2013-08-04 06:40:00,
2013-08-04 02:45:00,66.2,60.2,29.23,NE,39,0.0,0.0,81,0.00,CLR,,0.00,WeatherDisplay:10.37,2013-08-04 06:45:00,
2013-08-04 02:49:00,66.4,60.4,29.23,NE,40,0.0,0.0,81,0.00,CLR,,0.00,WeatherDisplay:10.37,2013-08-04 06:49:00,
2013-08-04 02:54:00,66.4,60.4,29.23,NE,40,0.0,0.0,81,0.00,CLR,,0.00,WeatherDisplay:10.37,2013-08-04 06:54:00,
2013-08-04 03:00:00,66.4,60.7,29.23,NE,40,0.0,0.0,82,0.00,CLR,,0.00,WeatherDisplay:10.37,2013-08-04 07:00:00,
2013-08-04 03:05:00,66.4,60.7,29.23,NE,40,0.0,0.0,82,0.00,CLR,,0.00,WeatherDisplay:10.37,2013-08-04 07:05:00,
2013-08-04 03:09:00,66.6,60.9,29.23,NE,40,0.0,0.0,82,0.00,CLR,,0.00,WeatherDisplay:10.37,2013-08-04 07:09:00,
2013-08-04 03:15:00,66.6,60.9,29.23,NE,40,0.0,0.0,82,0.00,CLR,,0.00,WeatherDisplay:10.37,2013-08-04 07:15:00,
2013-08-04 03:19:00,66.6,60.9,29.23,NE,40,0.0,0.0,82,0.00,CLR,,0.00,WeatherDisplay:10.37,2013-08-04 07:19:00,
2013-08-04 03:24:00,66.6,60.9,29.23,NE,40,0.0,0.0,82,0.00,CLR,,0.00,WeatherDisplay:10.37,2013-08-04 07:24:00,
2013-08-04 03:29:00,66.6,60.9,29.23,NE,40,0.0,0.0,82,0.00,CLR,,0.00,WeatherDisplay:10.37,2013-08-04 07:29:00,
2013-08-04 03:35:00,66.6,60.9,29.23,NE,40,0.0,0.0,82,0.00,CLR,,0.00,WeatherDisplay:10.37,2013-08-04 07:35:00,
2013-08-04 03:40:00,66.6,60.9,29.23,NE,39,0.0,0.0,82,0.00,CLR,,0.00,WeatherDisplay:10.37,2013-08-04 07:40:00,
2013-08-04 03:45:00,66.6,60.9,29.23,NE,40,0.0,0.0,82,0.00,CLR,,0.00,WeatherDisplay:10.37,2013-08-04 07:45:00,
2013-08-04 03:50:00,66.6,60.9,29.23,NE,40,0.0,0.0,82,0.00,CLR,,0.00,WeatherDisplay:10.37,2013-08-04 07:50:00,
2013-08-04 03:54:00,66.4,60.7,29.23,NE,40,0.0,0.0,82,0.00,CLR,,0.00,WeatherDisplay:10.37,2013-08-04 07:54:00,
2013-08-04 04:00:00,66.4,60.7,29.23,NE,40,0.0,0.0,82,0.00,CLR,,0.00,WeatherDisplay:10.37,2013-08-04 08:00:00,
2013-08-04 04:05:00,66.4,60.7,29.23,NE,40,0.0,0.0,82,0.00,BKN,,0.00,WeatherDisplay:10.37,2013-08-04 08:05:00,
2013-08-04 04:10:00,66.4,60.7,29.23,NE,40,0.0,0.0,82,0.00,BKN,,0.00,WeatherDisplay:10.37,2013-08-04 08:10:00,
2013-08-04 04:15:00,66.4,60.7,29.23,NE,40,0.0,0.0,82,0.00,BKN,,0.00,WeatherDisplay:10.37,2013-08-04 08:15:00,
2013-08-04 04:20:00,66.4,60.7,29.23,NE,40,0.0,0.0,82,0.00,BKN,,0.00,WeatherDisplay:10.37,2013-08-04 08:20:00,
2013-08-04 04:25:00,66.4,60.7,29.23,NE,40,0.0,0.0,82,0.00,BKN,,0.00,WeatherDisplay:10.37,2013-08-04 08:25:00,
2013-08-04 04:30:00,66.2,60.5,29.23,NE,40,0.0,0.0,82,0.00,BKN,,0.00,WeatherDisplay:10.37,2013-08-04 08:30:00,
2013-08-04 04:35:00,66.2,60.5,29.23,NE,34,0.0,0.0,82,0.00,BKN,,0.00,WeatherDisplay:10.37,2013-08-04 08:35:00,
2013-08-04 04:40:00,66.0,60.4,29.23,NE,36,0.0,0.0,82,0.00,BKN,,0.00,WeatherDisplay:10.37,2013-08-04 08:40:00,
2013-08-04 04:45:00,66.0,60.4,29.23,NE,34,0.0,0.0,82,0.00,BKN,,0.00,WeatherDisplay:10.37,2013-08-04 08:45:00,
2013-08-04 04:50:00,66.0,60.4,29.23,NE,34,0.0,0.0,82,0.00,BKN,,0.00,WeatherDisplay:10.37,2013-08-04 08:50:00,
2013-08-04 04:55:00,65.8,60.2,29.23,NE,34,0.0,0.0,82,0.00,BKN,,0.00,WeatherDisplay:10.37,2013-08-04 08:55:00,
2013-08-04 05:00:00,65.8,60.2,29.23,NE,34,0.0,0.0,82,0.00,BKN,,0.00,WeatherDisplay:10.37,2013-08-04 09:00:00,
2013-08-04 05:04:00,65.8,60.2,29.23,NE,34,0.0,0.0,82,0.00,BKN,,0.00,WeatherDisplay:10.37,2013-08-04 09:04:00,
2013-08-04 05:10:00,65.8,60.2,29.23,NE,34,0.0,0.0,82,0.00,BKN,,0.00,WeatherDisplay:10.37,2013-08-04 09:10:00,
2013-08-04 05:14:00,65.7,59.7,29.23,NE,34,0.0,0.0,81,0.00,BKN,,0.00,WeatherDisplay:10.37,2013-08-04 09:14:00,
2013-08-04 05:20:00,65.7,59.7,29.23,NE,34,0.0,0.0,81,0.00,BKN,,0.00,WeatherDisplay:10.37,2013-08-04 09:20:00,
2013-08-04 05:25:00,65.7,59.7,29.23,NE,34,0.0,0.0,81,0.00,BKN,,0.00,WeatherDisplay:10.37,2013-08-04 09:25:00,
2013-08-04 05:30:00,65.7,59.7,29.23,NE,34,0.0,0.0,81,0.00,BKN,,0.00,WeatherDisplay:10.37,2013-08-04 09:30:00,
2013-08-04 05:35:00,65.7,59.7,29.23,NE,34,0.0,0.0,81,0.00,BKN,,0.00,WeatherDisplay:10.37,2013-08-04 09:35:00,
2013-08-04 05:40:00,65.7,59.7,29.23,NE,34,0.0,0.0,81,0.00,BKN,,0.00,WeatherDisplay:10.37,2013-08-04 09:40:00,
2013-08-04 05:45:00,65.5,59.5,29.23,NE,34,0.0,0.0,81,0.00,BKN,,0.00,WeatherDisplay:10.37,2013-08-04 09:45:00,
2013-08-04 05:50:00,65.5,59.5,29.23,NE,34,0.0,0.0,81,0.00,BKN,,0.00,WeatherDisplay:10.37,2013-08-04 09:50:00,
2013-08-04 05:55:00,65.3,59.3,29.23,NE,34,0.0,0.0,81,0.00,BKN,,0.00,WeatherDisplay:10.37,2013-08-04 09:55:00,
2013-08-04 06:00:00,65.3,59.0,29.23,NE,34,0.0,0.0,80,0.00,BKN,,0.00,WeatherDisplay:10.37,2013-08-04 10:00:00,
2013-08-04 06:05:00,65.1,58.8,29.23,NE,34,0.0,0.0,80,0.00,SCT,,0.00,WeatherDisplay:10.37,2013-08-04 10:05:00,
2013-08-04 06:10:00,64.9,59.0,29.23,NE,34,0.0,0.0,81,0.00,SCT,,0.00,WeatherDisplay:10.37,2013-08-04 10:10:00,
2013-08-04 06:15:00,64.9,59.0,29.23,NE,34,0.0,0.0,81,0.00,SCT,,0.00,WeatherDisplay:10.37,2013-08-04 10:15:00,
2013-08-04 06:19:00,64.9,59.0,29.23,NE,34,0.0,0.0,81,0.00,SCT,,0.00,WeatherDisplay:10.37,2013-08-04 10:19:00,
2013-08-04 06:24:00,64.8,58.8,29.23,NE,34,0.0,0.0,81,0.00,SCT,,0.00,WeatherDisplay:10.37,2013-08-04 10:24:00,
2013-08-04 06:30:00,64.8,58.8,29.23,NE,34,0.0,0.0,81,0.00,SCT,,0.00,WeatherDisplay:10.37,2013-08-04 10:30:00,
2013-08-04 06:35:00,64.8,58.8,29.23,NNE,29,0.0,0.0,81,0.00,SCT,,0.00,WeatherDisplay:10.37,2013-08-04 10:35:00,
2013-08-04 06:40:00,64.8,58.8,29.23,NNE,29,0.0,0.0,81,0.00,SCT,,0.00,WeatherDisplay:10.37,2013-08-04 10:40:00,
2013-08-04 06:45:00,64.8,58.4,29.26,NNE,29,0.0,0.0,80,0.00,SCT,,0.00,WeatherDisplay:10.37,2013-08-04 10:45:00,
2013-08-04 06:50:00,64.6,58.3,29.26,NNE,29,0.0,0.0,80,0.00,SCT,,0.00,WeatherDisplay:10.37,2013-08-04 10:50:00,
2013-08-04 06:55:00,64.6,58.3,29.26,NNE,29,0.0,0.0,80,0.00,SCT,,0.00,WeatherDisplay:10.37,2013-08-04 10:55:00,
2013-08-04 07:00:00,64.8,58.1,29.26,NE,41,0.0,0.0,79,0.00,SCT,,0.00,WeatherDisplay:10.37,2013-08-04 11:00:00,
2013-08-04 07:05:00,64.6,57.9,29.26,NE,42,0.0,0.0,79,0.00,CLR,,0.00,WeatherDisplay:10.37,2013-08-04 11:05:00,
2013-08-04 07:10:00,64.6,57.6,29.26,North,9,0.0,0.0,78,0.00,CLR,,0.00,WeatherDisplay:10.37,2013-08-04 11:10:00,
2013-08-04 07:14:00,64.6,57.6,29.26,SSW,209,0.0,0.0,78,0.00,CLR,,0.00,WeatherDisplay:10.37,2013-08-04 11:14:00,
2013-08-04 07:19:00,64.6,57.6,29.26,SSW,209,0.0,0.0,78,0.00,CLR,,0.00,WeatherDisplay:10.37,2013-08-04 11:19:00,
2013-08-04 07:25:00,64.6,57.6,29.26,SSW,209,0.0,0.0,78,0.00,CLR,,0.00,WeatherDisplay:10.37,2013-08-04 11:25:00,
2013-08-04 07:30:00,64.6,57.6,29.26,West,264,0.0,0.0,78,0.00,CLR,,0.00,WeatherDisplay:10.37,2013-08-04 11:30:00,
2013-08-04 07:35:00,64.8,57.7,29.26,West,264,0.0,0.0,78,0.00,CLR,,0.00,WeatherDisplay:10.37,2013-08-04 11:35:00,
2013-08-04 07:40:00,64.8,57.7,29.26,SW,233,0.0,0.0,78,0.00,CLR,,0.00,WeatherDisplay:10.37,2013-08-04 11:40:00,
2013-08-04 07:45:00,64.8,57.7,29.26,NNW,330,2.3,0.0,78,0.00,CLR,,0.00,WeatherDisplay:10.37,2013-08-04 11:45:00,
2013-08-04 07:50:00,64.8,57.7,29.26,NNW,330,0.0,0.0,78,0.00,CLR,,0.00,WeatherDisplay:10.37,2013-08-04 11:50:00,
2013-08-04 07:55:00,64.9,57.6,29.26,NNW,330,0.0,0.0,77,0.00,CLR,,0.00,WeatherDisplay:10.37,2013-08-04 11:55:00,
2013-08-04 08:00:00,65.1,57.7,29.26,NNW,330,0.0,0.0,77,0.00,CLR,,0.00,WeatherDisplay:10.37,2013-08-04 12:00:00,
2013-08-04 08:05:00,65.3,57.9,29.26,NNW,330,0.0,0.0,77,0.00,CLR,,0.00,WeatherDisplay:10.37,2013-08-04 12:05:00,
2013-08-04 08:11:00,65.3,57.5,29.26,SW,234,3.5,0.0,76,0.00,CLR,,0.00,WeatherDisplay:10.37,2013-08-04 12:11:00,
2013-08-04 08:16:00,65.5,56.6,29.26,North,353,3.5,0.0,73,0.00,CLR,,0.00,WeatherDisplay:10.37,2013-08-04 12:16:00,
2013-08-04 08:21:00,65.5,56.2,29.26,NNE,22,0.0,0.0,72,0.00,CLR,,0.00,WeatherDisplay:10.37,2013-08-04 12:21:00,
2013-08-04 08:25:00,65.7,56.0,29.26,ENE,68,0.0,0.0,71,0.00,CLR,,0.00,WeatherDisplay:10.37,2013-08-04 12:25:00,
2013-08-04 08:31:00,65.8,55.4,29.26,ENE,74,0.0,0.0,69,0.00,CLR,,0.00,WeatherDisplay:10.37,2013-08-04 12:31:00,
2013-08-04 08:36:00,66.0,54.7,29.26,NNE,17,0.0,0.0,67,0.00,CLR,,0.00,WeatherDisplay:10.37,2013-08-04 12:36:00,
2013-08-04 08:40:00,66.2,54.1,29.26,NNE,17,0.0,0.0,65,0.00,CLR,,0.00,WeatherDisplay:10.37,2013-08-04 12:40:00,
2013-08-04 08:46:00,66.4,53.0,29.26,WSW,254,3.5,0.0,62,0.00,CLR,,0.00,WeatherDisplay:10.37,2013-08-04 12:46:00,
2013-08-04 08:51:00,66.6,52.7,29.26,South,190,0.0,0.0,61,0.00,CLR,,0.00,WeatherDisplay:10.37,2013-08-04 12:51:00,
2013-08-04 08:56:00,66.7,52.4,29.26,WNW,292,3.5,0.0,60,0.00,CLR,,0.00,WeatherDisplay:10.37,2013-08-04 12:56:00,
2013-08-04 09:01:00,66.9,52.1,29.26,WSW,245,0.0,0.0,59,0.00,CLR,,0.00,WeatherDisplay:10.37,2013-08-04 13:01:00,
2013-08-04 09:06:00,67.1,51.8,29.26,NW,316,0.0,0.0,58,0.00,FEW,,0.00,WeatherDisplay:10.37,2013-08-04 13:06:00,
2013-08-04 09:11:00,67.3,51.5,29.26,SE,126,3.6,0.0,57,0.00,FEW,,0.00,WeatherDisplay:10.37,2013-08-04 13:11:00,
2013-08-04 09:16:00,67.5,50.7,29.29,WSW,250,3.5,0.0,55,0.00,FEW,,0.00,WeatherDisplay:10.37,2013-08-04 13:16:00,
2013-08-04 09:21:00,67.6,50.9,29.29,WNW,303,3.5,0.0,55,0.00,FEW,,0.00,WeatherDisplay:10.37,2013-08-04 13:21:00,
2013-08-04 09:26:00,67.8,50.6,29.29,WSW,245,2.3,0.0,54,0.00,FEW,,0.00,WeatherDisplay:10.37,2013-08-04 13:26:00,
2013-08-04 09:31:00,68.0,50.7,29.29,NNE,27,0.0,0.0,54,0.00,FEW,,0.00,WeatherDisplay:10.37,2013-08-04 13:31:00,
2013-08-04 09:36:00,68.2,50.4,29.29,SSW,207,0.0,0.0,53,0.00,FEW,,0.00,WeatherDisplay:10.37,2013-08-04 13:36:00,
2013-08-04 09:41:00,68.4,49.5,29.29,West,280,3.5,0.0,51,0.00,FEW,,0.00,WeatherDisplay:10.37,2013-08-04 13:41:00,
2013-08-04 09:46:00,68.4,49.5,29.29,SSE,165,3.5,0.0,51,0.00,FEW,,0.00,WeatherDisplay:10.37,2013-08-04 13:46:00,
2013-08-04 09:51:00,68.5,49.2,29.29,WSW,240,2.3,0.0,50,0.00,FEW,,0.00,WeatherDisplay:10.37,2013-08-04 13:51:00,
2013-08-04 09:56:00,68.7,47.7,29.29,West,261,2.3,0.0,47,0.00,FEW,,0.00,WeatherDisplay:10.37,2013-08-04 13:56:00,
2013-08-04 10:01:00,68.9,47.8,29.29,NNE,16,0.0,0.0,47,0.00,CLR,,0.00,WeatherDisplay:10.37,2013-08-04 14:01:00,
2013-08-04 10:06:00,69.3,48.2,29.29,ENE,67,3.5,0.0,47,0.00,CLR,,0.00,WeatherDisplay:10.37,2013-08-04 14:06:00,
2013-08-04 10:11:00,69.4,48.3,29.29,NE,34,0.0,0.0,47,0.00,CLR,,0.00,WeatherDisplay:10.37,2013-08-04 14:11:00,
2013-08-04 10:16:00,69.4,46.0,29.29,South,179,3.6,0.0,43,0.00,CLR,,0.00,WeatherDisplay:10.37,2013-08-04 14:16:00,
2013-08-04 10:21:00,69.8,46.9,29.29,NW,319,8.1,0.0,44,0.00,CLR,,0.00,WeatherDisplay:10.37,2013-08-04 14:21:00,
2013-08-04 10:26:00,70.0,46.4,29.29,NW,312,2.3,0.0,43,0.00,CLR,,0.00,WeatherDisplay:10.37,2013-08-04 14:26:00,
2013-08-04 10:30:00,70.2,46.6,29.26,WSW,255,3.5,0.0,43,0.00,CLR,,0.00,WeatherDisplay:10.37,2013-08-04 14:30:00,
2013-08-04 10:36:00,70.2,44.0,29.26,South,184,4.0,0.0,39,0.00,CLR,,0.00,WeatherDisplay:10.37,2013-08-04 14:36:00,
2013-08-04 10:41:00,70.5,45.7,29.26,SSW,203,3.5,0.0,41,0.00,CLR,,0.00,WeatherDisplay:10.37,2013-08-04 14:41:00,
2013-08-04 10:45:00,70.9,46.6,29.29,WNW,295,0.0,0.0,42,0.00,CLR,,0.00,WeatherDisplay:10.37,2013-08-04 14:45:00,
2013-08-04 10:51:00,71.1,46.8,29.29,SSW,202,4.9,0.0,42,0.00,CLR,,0.00,WeatherDisplay:10.37,2013-08-04 14:51:00,
2013-08-04 10:56:00,71.4,46.5,29.29,WNW,288,5.8,5.8,41,0.00,CLR,,0.00,WeatherDisplay:10.37,2013-08-04 14:56:00,
2013-08-04 11:01:00,71.6,46.6,29.29,SSE,161,3.5,0.0,41,0.00,FEW,,0.00,WeatherDisplay:10.37,2013-08-04 15:01:00,
2013-08-04 11:06:00,71.8,46.2,29.29,ENE,68,3.6,0.0,40,0.00,FEW,,0.00,WeatherDisplay:10.37,2013-08-04 15:06:00,
2013-08-04 11:11:00,72.1,45.8,29.29,West,260,3.5,0.0,39,0.00,FEW,,0.00,WeatherDisplay:10.37,2013-08-04 15:11:00,
2013-08-04 11:16:00,72.3,46.0,29.29,SSW,200,6.9,6.9,39,0.00,FEW,,0.00,WeatherDisplay:10.37,2013-08-04 15:16:00,
2013-08-04 11:20:00,72.7,47.0,29.29,WNW,293,3.5,0.0,40,0.00,FEW,,0.00,WeatherDisplay:10.37,2013-08-04 15:20:00,
2013-08-04 11:26:00,72.7,44.2,29.29,SW,231,2.7,0.0,36,0.00,FEW,,0.00,WeatherDisplay:10.37,2013-08-04 15:26:00,
2013-08-04 11:31:00,72.9,44.3,29.29,NW,306,3.5,3.5,36,0.00,FEW,,0.00,WeatherDisplay:10.37,2013-08-04 15:31:00,
2013-08-04 11:36:00,73.0,44.5,29.29,South,170,3.5,3.5,36,0.00,FEW,,0.00,WeatherDisplay:10.37,2013-08-04 15:36:00,
2013-08-04 11:42:00,73.4,46.2,29.29,West,267,5.8,5.8,38,0.00,FEW,,0.00,WeatherDisplay:10.37,2013-08-04 15:42:00,
2013-08-04 11:47:00,73.8,48.6,29.29,NNE,27,4.0,0.0,41,0.00,FEW,,0.00,WeatherDisplay:10.37,2013-08-04 15:47:00,
2013-08-04 11:52:00,73.8,45.1,29.29,WSW,240,4.6,4.6,36,0.00,FEW,,0.00,WeatherDisplay:10.37,2013-08-04 15:52:00,
2013-08-04 11:56:00,73.9,44.5,29.29,SSE,160,5.8,5.8,35,0.00,FEW,,0.00,WeatherDisplay:10.37,2013-08-04 15:56:00,
2013-08-04 12:02:00,74.1,43.9,29.29,NW,314,3.5,0.0,34,0.00,SCT,,0.00,WeatherDisplay:10.37,2013-08-04 16:02:00,
2013-08-04 12:07:00,74.3,45.6,29.29,North,10,0.0,0.0,36,0.00,SCT,,0.00,WeatherDisplay:10.37,2013-08-04 16:07:00,
2013-08-04 12:12:00,74.5,45.0,29.29,NW,314,3.5,0.0,35,0.00,SCT,,0.00,WeatherDisplay:10.37,2013-08-04 16:12:00,
2013-08-04 12:17:00,74.5,43.5,29.29,WNW,297,4.6,0.0,33,0.00,SCT,,0.00,WeatherDisplay:10.37,2013-08-04 16:17:00,
2013-08-04 12:21:00,74.7,45.2,29.29,ESE,116,3.5,0.0,35,0.00,SCT,,0.00,WeatherDisplay:10.37,2013-08-04 16:21:00,
2013-08-04 12:27:00,74.8,46.1,29.29,WSW,237,2.3,0.0,36,0.00,SCT,,0.00,WeatherDisplay:10.37,2013-08-04 16:27:00,
2013-08-04 12:32:00,75.2,44.9,29.29,SSE,163,2.3,0.0,34,0.00,SCT,,0.00,WeatherDisplay:10.37,2013-08-04 16:32:00,
2013-08-04 12:37:00,75.4,44.3,29.29,North,10,2.3,0.0,33,0.00,SCT,,0.00,WeatherDisplay:10.37,2013-08-04 16:37:00,
2013-08-04 12:42:00,75.4,44.3,29.29,WSW,247,2.7,0.0,33,0.00,SCT,,0.00,WeatherDisplay:10.37,2013-08-04 16:42:00,
2013-08-04 12:47:00,75.6,44.4,29.29,SW,230,2.3,0.0,33,0.00,SCT,,0.00,WeatherDisplay:10.37,2013-08-04 16:47:00,
2013-08-04 12:52:00,75.4,44.3,29.29,WSW,241,0.0,0.0,33,0.00,SCT,,0.00,WeatherDisplay:10.37,2013-08-04 16:52:00,
2013-08-04 12:57:00,75.2,44.9,29.29,WNW,299,3.5,0.0,34,0.00,SCT,,0.00,WeatherDisplay:10.37,2013-08-04 16:57:00,
2013-08-04 13:02:00,75.2,44.1,29.29,West,266,5.8,0.0,33,0.00,SCT,,0.00,WeatherDisplay:10.37,2013-08-04 17:02:00,
2013-08-04 13:07:00,75.4,44.3,29.29,NW,320,2.3,0.0,33,0.00,SCT,,0.00,WeatherDisplay:10.37,2013-08-04 17:07:00,
2013-08-04 13:12:00,75.7,44.6,29.29,SSE,159,4.0,4.0,33,0.00,SCT,,0.00,WeatherDisplay:10.37,2013-08-04 17:12:00,
2013-08-04 13:17:00,75.9,44.7,29.29,North,5,5.8,5.8,33,0.00,SCT,,0.00,WeatherDisplay:10.37,2013-08-04 17:17:00,
2013-08-04 13:22:00,75.9,44.7,29.29,SW,229,4.9,0.0,33,0.00,SCT,,0.00,WeatherDisplay:10.37,2013-08-04 17:22:00,
2013-08-04 13:27:00,75.9,46.3,29.29,East,96,5.8,0.0,35,0.00,SCT,,0.00,WeatherDisplay:10.37,2013-08-04 17:27:00,
2013-08-04 13:32:00,76.1,45.7,29.29,NNE,33,5.8,5.8,34,0.00,SCT,,0.00,WeatherDisplay:10.37,2013-08-04 17:32:00,
2013-08-04 13:37:00,75.9,45.5,29.29,WNW,294,3.5,3.5,34,0.00,SCT,,0.00,WeatherDisplay:10.37,2013-08-04 17:37:00,
2013-08-04 13:42:00,75.4,45.1,29.29,East,95,2.3,0.0,34,0.00,SCT,,0.00,WeatherDisplay:10.37,2013-08-04 17:42:00,
2013-08-04 13:47:00,75.0,45.5,29.26,ENE,70,2.3,0.0,35,0.00,SCT,,0.00,WeatherDisplay:10.37,2013-08-04 17:47:00,
2013-08-04 13:52:00,75.0,45.5,29.26,SE,140,0.0,0.0,35,0.00,SCT,,0.00,WeatherDisplay:10.37,2013-08-04 17:52:00,
2013-08-04 13:57:00,75.2,46.4,29.26,WNW,285,3.1,0.0,36,0.00,SCT,,0.00,WeatherDisplay:10.37,2013-08-04 17:57:00,
2013-08-04 14:02:00,75.6,45.2,29.26,SSW,203,3.5,0.0,34,0.00,SCT,,0.00,WeatherDisplay:10.37,2013-08-04 18:02:00,
2013-08-04 14:07:00,76.1,49.3,29.26,WSW,258,4.6,4.6,39,0.00,SCT,,0.00,WeatherDisplay:10.37,2013-08-04 18:07:00,
2013-08-04 14:12:00,76.6,46.2,29.26,SSE,165,2.3,0.0,34,0.00,SCT,,0.00,WeatherDisplay:10.37,2013-08-04 18:12:00,
2013-08-04 14:17:00,76.8,43.9,29.26,WSW,253,2.3,0.0,31,0.00,SCT,,0.00,WeatherDisplay:10.37,2013-08-04 18:17:00,
2013-08-04 14:22:00,77.2,43.3,29.26,NW,314,3.5,0.0,30,0.00,SCT,,0.00,WeatherDisplay:10.37,2013-08-04 18:22:00,
2013-08-04 14:27:00,77.4,43.5,29.26,WSW,250,2.7,0.0,30,0.00,SCT,,0.00,WeatherDisplay:10.37,2013-08-04 18:27:00,
2013-08-04 14:32:00,77.9,43.1,29.26,SSW,199,2.3,0.0,29,0.00,SCT,,0.00,WeatherDisplay:10.37,2013-08-04 18:32:00,
2013-08-04 14:37:00,79.0,44.0,29.26,East,97,3.6,0.0,29,0.00,SCT,,0.00,WeatherDisplay:10.37,2013-08-04 18:37:00,
2013-08-04 14:42:00,79.9,43.9,29.26,West,276,3.5,3.5,28,0.00,SCT,,0.00,WeatherDisplay:10.37,2013-08-04 18:42:00,
2013-08-04 14:47:00,80.6,44.5,29.26,West,279,5.4,5.4,28,0.00,SCT,,0.00,WeatherDisplay:10.37,2013-08-04 18:47:00,
2013-08-04 14:52:00,81.1,42.0,29.26,NW,316,3.5,3.6,25,0.00,SCT,,0.00,WeatherDisplay:10.37,2013-08-04 18:52:00,
2013-08-04 14:57:00,81.3,41.1,29.26,WNW,288,5.8,5.8,24,0.00,SCT,,0.00,WeatherDisplay:10.37,2013-08-04 18:57:00,
2013-08-04 15:02:00,82.0,41.7,29.26,SSE,167,3.5,0.0,24,0.00,SCT,,0.00,WeatherDisplay:10.37,2013-08-04 19:02:00,
2013-08-04 15:07:00,81.9,43.6,29.26,WSW,240,0.0,0.0,26,0.00,SCT,,0.00,WeatherDisplay:10.37,2013-08-04 19:07:00,
2013-08-04 15:12:00,81.9,43.6,29.26,WNW,288,0.0,0.0,26,0.00,SCT,,0.00,WeatherDisplay:10.37,2013-08-04 19:12:00,
2013-08-04 15:17:00,81.5,42.3,29.26,NW,316,5.4,5.4,25,0.00,SCT,,0.00,WeatherDisplay:10.37,2013-08-04 19:17:00,
2013-08-04 15:22:00,80.6,43.5,29.26,WSW,256,3.5,0.0,27,0.00,SCT,,0.00,WeatherDisplay:10.37,2013-08-04 19:22:00,
2013-08-04 15:27:00,80.2,45.1,29.26,SW,219,3.5,0.0,29,0.00,SCT,,0.00,WeatherDisplay:10.37,2013-08-04 19:27:00,
2013-08-04 15:32:00,79.7,44.6,29.26,West,265,3.5,0.0,29,0.00,SCT,,0.00,WeatherDisplay:10.37,2013-08-04 19:32:00,
2013-08-04 15:37:00,79.2,44.2,29.26,North,2,0.0,0.0,29,0.00,SCT,,0.00,WeatherDisplay:10.37,2013-08-04 19:37:00,
2013-08-04 15:42:00,78.8,44.7,29.26,WSW,253,2.3,0.0,30,0.00,SCT,,0.00,WeatherDisplay:10.37,2013-08-04 19:42:00,
2013-08-04 15:47:00,78.1,44.1,29.26,NNE,19,0.0,0.0,30,0.00,SCT,,0.00,WeatherDisplay:10.37,2013-08-04 19:47:00,
2013-08-04 15:52:00,78.1,44.1,29.26,SW,221,3.5,0.0,30,0.00,SCT,,0.00,WeatherDisplay:10.37,2013-08-04 19:52:00,
2013-08-04 15:58:00,77.9,44.0,29.26,NW,324,3.5,0.0,30,0.00,SCT,,0.00,WeatherDisplay:10.37,2013-08-04 19:58:00,
2013-08-04 16:03:00,77.9,44.0,29.26,West,277,5.8,0.0,30,0.00,CLR,,0.00,WeatherDisplay:10.37,2013-08-04 20:03:00,
2013-08-04 16:08:00,77.7,41.1,29.26,West,267,3.5,0.0,27,0.00,CLR,,0.00,WeatherDisplay:10.37,2013-08-04 20:08:00,
2013-08-04 16:13:00,77.5,40.9,29.26,West,261,2.3,0.0,27,0.00,CLR,,0.00,WeatherDisplay:10.37,2013-08-04 20:13:00,
2013-08-04 16:18:00,77.7,42.9,29.26,West,263,2.7,0.0,29,0.00,CLR,,0.00,WeatherDisplay:10.37,2013-08-04 20:18:00,
2013-08-04 16:23:00,77.7,42.9,29.26,WNW,294,3.5,0.0,29,0.00,CLR,,0.00,WeatherDisplay:10.37,2013-08-04 20:23:00,
2013-08-04 16:28:00,77.9,43.1,29.26,ENE,63,10.9,10.9,29,0.00,CLR,,0.00,WeatherDisplay:10.37,2013-08-04 20:28:00,
2013-08-04 16:33:00,77.7,41.1,29.26,ESE,110,4.6,4.6,27,0.00,CLR,,0.00,WeatherDisplay:10.37,2013-08-04 20:33:00,
2013-08-04 16:38:00,77.4,40.8,29.26,West,280,3.5,0.0,27,0.00,CLR,,0.00,WeatherDisplay:10.37,2013-08-04 20:38:00,
2013-08-04 16:43:00,77.2,42.5,29.26,WNW,290,3.5,3.5,29,0.00,CLR,,0.00,WeatherDisplay:10.37,2013-08-04 20:43:00,
2013-08-04 16:48:00,77.2,40.6,29.26,NE,48,6.3,6.3,27,0.00,CLR,,0.00,WeatherDisplay:10.37,2013-08-04 20:48:00,
2013-08-04 16:53:00,77.0,40.4,29.26,SW,227,4.9,0.0,27,0.00,CLR,,0.00,WeatherDisplay:10.37,2013-08-04 20:53:00,
2013-08-04 16:58:00,76.8,40.3,29.26,North,11,3.5,0.0,27,0.00,CLR,,0.00,WeatherDisplay:10.37,2013-08-04 20:58:00,
2013-08-04 17:03:00,76.5,40.0,29.26,NNW,344,2.3,0.0,27,0.00,CLR,,0.00,WeatherDisplay:10.37,2013-08-04 21:03:00,
2013-08-04 17:08:00,76.1,39.7,29.26,West,280,2.3,0.0,27,0.00,CLR,,0.00,WeatherDisplay:10.37,2013-08-04 21:08:00,
2013-08-04 17:13:00,75.9,39.5,29.26,NNE,22,4.6,0.0,27,0.00,CLR,,0.00,WeatherDisplay:10.37,2013-08-04 21:13:00,
2013-08-04 17:18:00,75.7,39.4,29.26,ENE,71,4.0,0.0,27,0.00,CLR,,0.00,WeatherDisplay:10.37,2013-08-04 21:18:00,
2013-08-04 17:23:00,75.7,38.4,29.26,NW,308,2.7,0.0,26,0.00,CLR,,0.00,WeatherDisplay:10.37,2013-08-04 21:23:00,
2013-08-04 17:28:00,75.7,38.4,29.26,West,274,3.5,0.0,26,0.00,CLR,,0.00,WeatherDisplay:10.37,2013-08-04 21:28:00,
2013-08-04 17:32:00,75.6,38.2,29.26,WSW,242,2.3,0.0,26,0.00,CLR,,0.00,WeatherDisplay:10.37,2013-08-04 21:32:00,
2013-08-04 17:38:00,75.6,38.2,29.26,West,266,3.5,0.0,26,0.00,CLR,,0.00,WeatherDisplay:10.37,2013-08-04 21:38:00,
2013-08-04 17:43:00,75.4,42.6,29.26,South,175,0.0,0.0,31,0.00,CLR,,0.00,WeatherDisplay:10.37,2013-08-04 21:43:00,
2013-08-04 17:48:00,75.2,40.7,29.26,South,172,3.5,0.0,29,0.00,CLR,,0.00,WeatherDisplay:10.37,2013-08-04 21:48:00,
2013-08-04 17:53:00,75.4,41.8,29.26,SW,226,4.0,0.0,30,0.00,CLR,,0.00,WeatherDisplay:10.37,2013-08-04 21:53:00,
2013-08-04 17:58:00,75.4,40.0,29.26,WSW,254,0.0,0.0,28,0.00,CLR,,0.00,WeatherDisplay:10.37,2013-08-04 21:58:00,
2013-08-04 18:03:00,75.4,42.6,29.26,NNW,335,0.0,0.0,31,0.00,FEW,,0.00,WeatherDisplay:10.37,2013-08-04 22:03:00,
2013-08-04 18:08:00,75.0,42.3,29.26,North,4,3.5,0.0,31,0.00,FEW,,0.00,WeatherDisplay:10.37,2013-08-04 22:08:00,
2013-08-04 18:13:00,75.0,41.5,29.26,NW,314,0.0,0.0,30,0.00,FEW,,0.00,WeatherDisplay:10.37,2013-08-04 22:13:00,
2013-08-04 18:18:00,75.0,42.3,29.26,NW,323,3.5,0.0,31,0.00,FEW,,0.00,WeatherDisplay:10.37,2013-08-04 22:18:00,
2013-08-04 18:23:00,74.8,41.3,29.26,ESE,103,2.3,0.0,30,0.00,FEW,,0.00,WeatherDisplay:10.37,2013-08-04 22:23:00,
2013-08-04 18:28:00,74.8,42.2,29.26,North,357,3.5,0.0,31,0.00,FEW,,0.00,WeatherDisplay:10.37,2013-08-04 22:28:00,
2013-08-04 18:33:00,74.7,42.0,29.26,NW,320,0.0,0.0,31,0.00,FEW,,0.00,WeatherDisplay:10.37,2013-08-04 22:33:00,
2013-08-04 18:38:00,74.5,41.0,29.26,NE,49,2.3,0.0,30,0.00,FEW,,0.00,WeatherDisplay:10.37,2013-08-04 22:38:00,
2013-08-04 18:43:00,74.3,41.7,29.26,South,184,3.5,3.5,31,0.00,FEW,,0.00,WeatherDisplay:10.37,2013-08-04 22:43:00,
2013-08-04 18:48:00,74.1,41.5,29.26,NNE,28,2.7,0.0,31,0.00,FEW,,0.00,WeatherDisplay:10.37,2013-08-04 22:48:00,
2013-08-04 18:53:00,74.1,40.7,29.26,SSW,198,0.0,0.0,30,0.00,FEW,,0.00,WeatherDisplay:10.37,2013-08-04 22:53:00,
2013-08-04 18:58:00,73.9,42.2,29.26,SSW,205,3.6,3.6,32,0.00,FEW,,0.00,WeatherDisplay:10.37,2013-08-04 22:58:00,
2013-08-04 19:03:00,73.8,42.0,29.26,NNE,16,2.3,0.0,32,0.00,FEW,,0.00,WeatherDisplay:10.37,2013-08-04 23:03:00,
2013-08-04 19:08:00,73.6,41.1,29.26,NNE,16,0.0,0.0,31,0.00,FEW,,0.00,WeatherDisplay:10.37,2013-08-04 23:08:00,
2013-08-04 19:13:00,73.6,41.9,29.29,North,10,0.0,0.0,32,0.00,FEW,,0.00,WeatherDisplay:10.37,2013-08-04 23:13:00,
2013-08-04 19:18:00,73.2,41.6,29.29,NNE,31,3.5,3.5,32,0.00,FEW,,0.00,WeatherDisplay:10.37,2013-08-04 23:18:00,
2013-08-04 19:23:00,73.0,42.2,29.29,NNE,31,0.0,0.0,33,0.00,FEW,,0.00,WeatherDisplay:10.37,2013-08-04 23:23:00,
2013-08-04 19:28:00,72.7,41.9,29.29,NNE,31,0.0,0.0,33,0.00,FEW,,0.00,WeatherDisplay:10.37,2013-08-04 23:28:00,
2013-08-04 19:33:00,72.5,43.3,29.29,SE,146,0.0,0.0,35,0.00,FEW,,0.00,WeatherDisplay:10.37,2013-08-04 23:33:00,
2013-08-04 19:39:00,72.3,43.1,29.29,SE,146,0.0,0.0,35,0.00,FEW,,0.00,WeatherDisplay:10.37,2013-08-04 23:39:00,
2013-08-04 19:44:00,72.1,42.2,29.29,SE,146,0.0,0.0,34,0.00,FEW,,0.00,WeatherDisplay:10.37,2013-08-04 23:44:00,
2013-08-04 19:49:00,72.1,43.0,29.29,SE,146,0.0,0.0,35,0.00,FEW,,0.00,WeatherDisplay:10.37,2013-08-04 23:49:00,
2013-08-04 19:54:00,72.0,42.8,29.29,SE,146,0.0,0.0,35,0.00,FEW,,0.00,WeatherDisplay:10.37,2013-08-04 23:54:00,
2013-08-04 19:59:00,71.8,43.4,29.29,SE,146,0.0,0.0,36,0.00,FEW,,0.00,WeatherDisplay:10.37,2013-08-04 23:59:00,
2013-08-04 20:04:00,71.4,43.1,29.29,SE,146,0.0,0.0,36,0.00,FEW,,0.00,WeatherDisplay:10.37,2013-08-05 00:04:00,
2013-08-04 20:08:00,71.2,42.9,29.29,SE,146,0.0,0.0,36,0.00,FEW,,0.00,WeatherDisplay:10.37,2013-08-05 00:08:00,
2013-08-04 20:14:00,71.1,42.7,29.29,SE,146,0.0,0.0,36,0.00,FEW,,0.00,WeatherDisplay:10.37,2013-08-05 00:14:00,
2013-08-04 20:19:00,70.7,43.1,29.29,SE,146,0.0,0.0,37,0.00,FEW,,0.00,WeatherDisplay:10.37,2013-08-05 00:19:00,
2013-08-04 20:24:00,70.3,43.5,29.29,SE,146,0.0,0.0,38,0.00,FEW,,0.00,WeatherDisplay:10.37,2013-08-05 00:24:00,
2013-08-04 20:29:00,70.2,44.7,29.29,SE,146,0.0,0.0,40,0.00,FEW,,0.00,WeatherDisplay:10.37,2013-08-05 00:29:00,
2013-08-04 20:34:00,69.6,44.9,29.29,SE,146,0.0,0.0,41,0.00,FEW,,0.00,WeatherDisplay:10.37,2013-08-05 00:34:00,
2013-08-04 20:39:00,69.3,45.2,29.29,SE,146,0.0,0.0,42,0.00,FEW,,0.00,WeatherDisplay:10.37,2013-08-05 00:39:00,
2013-08-04 20:44:00,68.9,44.9,29.29,SE,146,0.0,0.0,42,0.00,FEW,,0.00,WeatherDisplay:10.37,2013-08-05 00:44:00,
2013-08-04 20:49:00,68.7,45.3,29.29,SE,146,0.0,0.0,43,0.00,FEW,,0.00,WeatherDisplay:10.37,2013-08-05 00:49:00,
2013-08-04 20:54:00,68.4,45.6,29.29,SE,146,0.0,0.0,44,0.00,FEW,,0.00,WeatherDisplay:10.37,2013-08-05 00:54:00,
2013-08-04 20:59:00,68.0,45.9,29.29,SE,146,0.0,0.0,45,0.00,FEW,,0.00,WeatherDisplay:10.37,2013-08-05 00:59:00,
2013-08-04 21:04:00,67.8,45.7,29.29,SE,146,0.0,0.0,45,0.00,FEW,,0.00,WeatherDisplay:10.37,2013-08-05 01:04:00,
2013-08-04 21:08:00,67.6,46.1,29.29,SE,146,0.0,0.0,46,0.00,FEW,,0.00,WeatherDisplay:10.37,2013-08-05 01:08:00,
2013-08-04 21:14:00,67.5,46.5,29.29,SE,146,0.0,0.0,47,0.00,FEW,,0.00,WeatherDisplay:10.37,2013-08-05 01:14:00,
2013-08-04 21:18:00,67.3,46.4,29.29,SE,146,0.0,0.0,47,0.00,FEW,,0.00,WeatherDisplay:10.37,2013-08-05 01:18:00,
2013-08-04 21:24:00,67.1,46.7,29.29,SE,146,0.0,0.0,48,0.00,FEW,,0.00,WeatherDisplay:10.37,2013-08-05 01:24:00,
2013-08-04 21:29:00,67.1,47.8,29.32,SE,146,0.0,0.0,50,0.00,FEW,,0.00,WeatherDisplay:10.37,2013-08-05 01:29:00,
2013-08-04 21:34:00,66.9,47.7,29.32,SE,146,0.0,0.0,50,0.00,FEW,,0.00,WeatherDisplay:10.37,2013-08-05 01:34:00,
2013-08-04 21:39:00,66.7,47.5,29.32,SE,146,0.0,0.0,50,0.00,FEW,,0.00,WeatherDisplay:10.37,2013-08-05 01:39:00,
2013-08-04 21:44:00,66.6,47.3,29.32,SE,146,0.0,0.0,50,0.00,FEW,,0.00,WeatherDisplay:10.37,2013-08-05 01:44:00,
2013-08-04 21:49:00,66.4,47.2,29.32,SE,146,0.0,0.0,50,0.00,FEW,,0.00,WeatherDisplay:10.37,2013-08-05 01:49:00,
2013-08-04 21:54:00,66.0,47.9,29.32,SE,146,0.0,0.0,52,0.00,FEW,,0.00,WeatherDisplay:10.37,2013-08-05 01:54:00,
2013-08-04 21:59:00,65.7,47.5,29.32,SE,146,0.0,0.0,52,0.00,FEW,,0.00,WeatherDisplay:10.37,2013-08-05 01:59:00,
2013-08-04 22:04:00,65.3,47.7,29.32,SE,146,0.0,0.0,53,0.00,FEW,,0.00,WeatherDisplay:10.37,2013-08-05 02:04:00,
2013-08-04 22:09:00,65.3,47.7,29.32,SE,146,0.0,0.0,53,0.00,FEW,,0.00,WeatherDisplay:10.37,2013-08-05 02:09:00,
2013-08-04 22:14:00,65.1,48.1,29.32,SE,146,0.0,0.0,54,0.00,FEW,,0.00,WeatherDisplay:10.37,2013-08-05 02:14:00,
2013-08-04 22:19:00,65.1,48.1,29.32,SE,146,0.0,0.0,54,0.00,FEW,,0.00,WeatherDisplay:10.37,2013-08-05 02:19:00,
2013-08-04 22:24:00,64.9,48.4,29.32,SE,146,0.0,0.0,55,0.00,FEW,,0.00,WeatherDisplay:10.37,2013-08-05 02:24:00,
2013-08-04 22:29:00,64.9,48.9,29.32,SE,146,0.0,0.0,56,0.00,FEW,,0.00,WeatherDisplay:10.37,2013-08-05 02:29:00,
2013-08-04 22:34:00,64.8,48.2,29.32,SE,146,0.0,0.0,55,0.00,FEW,,0.00,WeatherDisplay:10.37,2013-08-05 02:34:00,
2013-08-04 22:39:00,64.8,48.7,29.32,SE,146,0.0,0.0,56,0.00,FEW,,0.00,WeatherDisplay:10.37,2013-08-05 02:39:00,
2013-08-04 22:43:00,64.6,48.5,29.32,SE,146,0.0,0.0,56,0.00,FEW,,0.00,WeatherDisplay:10.37,2013-08-05 02:43:00,
2013-08-04 22:49:00,64.6,48.5,29.32,SE,146,0.0,0.0,56,0.00,FEW,,0.00,WeatherDisplay:10.37,2013-08-05 02:49:00,
2013-08-04 22:54:00,64.4,48.4,29.32,SE,146,0.0,0.0,56,0.00,FEW,,0.00,WeatherDisplay:10.37,2013-08-05 02:54:00,
2013-08-04 22:58:00,64.4,48.8,29.32,SE,146,0.0,0.0,57,0.00,FEW,,0.00,WeatherDisplay:10.37,2013-08-05 02:58:00,
2013-08-04 23:03:00,64.4,48.8,29.32,SE,146,0.0,0.0,57,0.00,FEW,,0.00,WeatherDisplay:10.37,2013-08-05 03:03:00,
2013-08-04 23:09:00,64.2,48.7,29.32,SE,146,0.0,0.0,57,0.00,FEW,,0.00,WeatherDisplay:10.37,2013-08-05 03:09:00,
2013-08-04 23:14:00,64.2,48.7,29.32,SE,146,0.0,0.0,57,0.00,FEW,,0.00,WeatherDisplay:10.37,2013-08-05 03:14:00,
2013-08-04 23:19:00,64.2,48.7,29.32,SE,146,0.0,0.0,57,0.00,FEW,,0.00,WeatherDisplay:10.37,2013-08-05 03:19:00,
2013-08-04 23:24:00,64.0,48.5,29.32,SE,146,0.0,0.0,57,0.00,FEW,,0.00,WeatherDisplay:10.37,2013-08-05 03:24:00,
2013-08-04 23:29:00,63.9,48.3,29.35,SE,146,0.0,0.0,57,0.00,FEW,,0.00,WeatherDisplay:10.37,2013-08-05 03:29:00,
2013-08-04 23:33:00,63.9,47.9,29.35,SE,146,0.0,0.0,56,0.00,FEW,,0.00,WeatherDisplay:10.37,2013-08-05 03:33:00,
2013-08-04 23:38:00,63.9,47.9,29.35,SE,146,0.0,0.0,56,0.00,FEW,,0.00,WeatherDisplay:10.37,2013-08-05 03:38:00,
2013-08-04 23:44:00,63.9,47.9,29.35,SE,146,0.0,0.0,56,0.00,FEW,,0.00,WeatherDisplay:10.37,2013-08-05 03:44:00,
2013-08-04 23:49:00,63.7,47.7,29.35,SE,146,0.0,0.0,56,0.00,FEW,,0.00,WeatherDisplay:10.37,2013-08-05 03:49:00,
2013-08-04 23:53:00,63.7,48.2,29.35,SE,146,0.0,0.0,57,0.00,FEW,,0.00,WeatherDisplay:10.37,2013-08-05 03:53:00,
2013-08-04 23:58:00,63.5,48.0,29.35,SE,146,0.0,0.0,57,0.00,FEW,,0.00,WeatherDisplay:10.37,2013-08-05 03:58:00,